Terminal Aerodrome Forecast
Issued by NWS Louisville, KY

Home | Current Version | Previous Version | Text Only | Print | Product List | Glossary On
Versions: 1 2 3 4 5 6 7 8 9 10 11 12 13 14 15 16 17
327
FTUS43 KLMK 091120
TAFLEX
TAF
KLEX 091120Z 0912/1012 27009KT P6SM VCSH FEW018 BKN035
      TEMPO 0912/0915 3SM -SHSN BKN025
     FM092100 27010G18KT 3SM -SHSN OVC025=

USA.gov is the U.S. government's official web portal to all federal, state and local government web resources and services.